Merigold, Mississippi
Current Conditions -  °F | °C
As of 3:15 PM on Tuesday 21 Oct 2014 (Local Time) from KRNV Reporting Station
Scattered Clouds Scattered Clouds  
Wind Chill: 79°   Ceiling: Unl
Heat Index: 80°   Visibility: 10mi
Dew Point: 58°   Wind: 7mph
Humidity: 49%   Direction: 340°NNW
Pressure: 30.02"   Gusts: NA
Location:  33.84°N, 90.73°W
Report Text: KRNV 212015Z AUTO 34006KT 10SM SCT050 26/14 A3002 RMK AO2 T02590143
Loading
Personal Weather Stations






























Interactive Weather Map
Tropical Storm Tracking
New forecast layout! Learn more

10-Day Weather Forecast

Advertisements
Track Severe Weather on mobile